Time;durP1;ratioP1;P1;durP2;ratioP2;P2;SDS_P1;SDS_P2;PMS_P1;PMS_P2;Temp;Humidity;BMP_temperature;BMP_pressure;BME280_temperature;BME280_humidity;BME280_pressure;Samples;Min_cycle;Max_cycle;Signal;HPM_P1;HPM_P2
2023/05/26 00:02:13;;;;;;;15.40;6.22;;;;;;;15.46;87.98;100630.38;5084965;28;20043;-81
2023/05/26 00:04:58;;;;;;;13.63;5.97;;;;;;;15.37;87.50;100627.00;5082386;28;20074;-78
2023/05/26 00:07:43;;;;;;;12.00;5.57;;;;;;;15.23;87.19;100626.84;5081533;28;20043;-78
2023/05/26 00:10:26;;;;;;;16.05;6.20;;;;;;;15.13;87.08;100631.59;5077634;28;20059;-80
2023/05/26 00:13:10;;;;;;;12.90;5.78;;;;;;;14.94;87.78;100625.09;5082682;28;20120;-79
2023/05/26 00:15:54;;;;;;;13.13;5.70;;;;;;;14.79;88.61;100625.09;5083364;28;20485;-78
2023/05/26 00:18:38;;;;;;;16.80;6.20;;;;;;;14.63;88.71;100626.88;5076955;28;20457;-78
2023/05/26 00:21:22;;;;;;;17.10;5.95;;;;;;;14.51;89.13;100633.63;5084388;28;20039;-78
2023/05/26 00:24:07;;;;;;;12.73;6.03;;;;;;;14.40;89.14;100635.72;5083841;28;20031;-79
2023/05/26 00:26:51;;;;;;;14.38;6.38;;;;;;;14.27;89.16;100631.06;5074118;28;20414;-78
2023/05/26 00:29:37;;;;;;;13.13;5.40;;;;;;;14.30;89.45;100631.69;5083757;28;20040;-78
2023/05/26 00:32:21;;;;;;;11.73;5.03;;;;;;;14.17;89.87;100643.69;5080292;28;20051;-79
2023/05/26 00:35:05;;;;;;;12.30;5.80;;;;;;;14.07;90.55;100628.09;5075638;28;20075;-78
2023/05/26 00:37:49;;;;;;;11.45;5.70;;;;;;;14.10;90.21;100638.28;5086493;28;20450;-78
2023/05/26 00:40:34;;;;;;;15.02;5.32;;;;;;;14.00;90.08;100643.00;5075778;28;20043;-79
2023/05/26 00:43:18;;;;;;;16.55;5.70;;;;;;;13.96;90.63;100642.53;5074885;28;20047;-78
2023/05/26 00:46:02;;;;;;;14.40;5.38;;;;;;;13.72;91.56;100638.25;5080876;28;20059;-79
2023/05/26 00:48:46;;;;;;;18.80;6.05;;;;;;;13.66;91.97;100646.88;5086557;28;20047;-79
2023/05/26 00:51:31;;;;;;;12.68;5.65;;;;;;;13.59;91.80;100638.03;5076663;28;20038;-77
2023/05/26 00:54:19;;;;;;;14.05;5.35;;;;;;;13.59;91.67;100646.75;5082710;28;20063;-78
2023/05/26 00:57:04;;;;;;;23.58;6.72;;;;;;;13.50;92.35;100647.81;5073648;28;20596;-78
2023/05/26 00:59:49;;;;;;;10.57;5.20;;;;;;;13.50;92.33;100648.59;5082115;28;20047;-78
2023/05/26 01:02:35;;;;;;;14.55;5.00;;;;;;;13.43;92.98;100642.41;5074242;28;20462;-78
2023/05/26 01:05:19;;;;;;;15.35;6.03;;;;;;;13.47;93.31;100646.31;5079586;28;20575;-78
2023/05/26 01:08:03;;;;;;;17.60;6.38;;;;;;;13.49;93.38;100639.06;5081996;28;20039;-78
2023/05/26 01:10:47;;;;;;;17.35;5.90;;;;;;;13.65;92.89;100645.22;5084384;28;20038;-77
2023/05/26 01:14:01;;;;;;;13.77;5.10;;;;;;;13.84;92.17;100639.50;5082076;28;20124;-76
2023/05/26 01:16:52;;;;;;;18.65;5.65;;;;;;;14.06;91.14;100638.84;5079175;28;20083;-78
2023/05/26 01:19:56;;;;;;;14.10;5.88;;;;;;;14.25;90.03;100648.06;5074336;28;20090;-77
2023/05/26 01:22:48;;;;;;;12.45;6.07;;;;;;;14.38;89.43;100639.53;5077478;28;20043;-78
2023/05/26 01:25:53;;;;;;;18.95;6.55;;;;;;;14.43;89.34;100640.63;5079791;28;20115;-77
2023/05/26 01:28:39;;;;;;;12.07;5.68;;;;;;;14.58;88.84;100634.56;5079598;28;20089;-78
2023/05/26 01:31:23;;;;;;;16.10;5.82;;;;;;;14.57;89.54;100630.28;5083204;28;20504;-78
2023/05/26 01:34:07;;;;;;;19.65;6.68;;;;;;;14.60;89.74;100632.53;5076500;28;20054;-76
2023/05/26 01:36:51;;;;;;;15.48;5.72;;;;;;;14.69;89.62;100628.78;5080480;28;20119;-77
2023/05/26 01:39:36;;;;;;;14.15;4.93;;;;;;;14.57;90.12;100635.56;5077597;28;20551;-77
2023/05/26 01:42:29;;;;;;;15.98;5.75;;;;;;;14.58;89.60;100645.13;5074070;28;20051;-77
2023/05/26 01:45:18;;;;;;;16.83;6.28;;;;;;;14.50;89.98;100646.03;5075025;28;20103;-77
2023/05/26 01:48:05;;;;;;;14.57;6.65;;;;;;;14.43;90.01;100638.00;5076649;28;20497;-78
2023/05/26 01:50:58;;;;;;;13.05;5.80;;;;;;;14.42;89.42;100640.81;5082112;28;20040;-76
2023/05/26 01:53:44;;;;;;;12.23;5.30;;;;;;;14.31;89.60;100642.06;5074346;28;20135;-77
2023/05/26 01:56:32;;;;;;;18.02;6.18;;;;;;;14.14;90.08;100639.56;5080491;28;20051;-77
2023/05/26 01:59:17;;;;;;;18.92;5.80;;;;;;;14.07;90.74;100643.13;5077861;28;20088;-79
2023/05/26 02:02:01;;;;;;;14.45;5.82;;;;;;;13.89;91.41;100641.59;5072982;28;20063;-78
2023/05/26 02:04:44;;;;;;;15.73;5.70;;;;;;;13.82;91.44;100646.75;5074202;28;20054;-77
2023/05/26 02:07:29;;;;;;;17.75;5.82;;;;;;;13.75;91.81;100652.91;5080117;28;20083;-77
2023/05/26 02:10:13;;;;;;;17.02;5.32;;;;;;;13.66;92.35;100654.78;5074933;28;20106;-76
2023/05/26 02:12:57;;;;;;;9.68;5.03;;;;;;;13.57;92.81;100649.56;5081639;28;20063;-77
2023/05/26 02:15:41;;;;;;;15.73;6.25;;;;;;;13.54;93.45;100652.53;5080398;28;20031;-77
2023/05/26 02:18:25;;;;;;;15.07;6.40;;;;;;;13.52;93.57;100667.72;5078115;28;20497;-77
2023/05/26 02:21:09;;;;;;;15.02;6.30;;;;;;;13.40;94.56;100658.53;5078152;28;20096;-78
2023/05/26 02:23:53;;;;;;;14.00;5.80;;;;;;;13.37;94.88;100661.53;5079990;28;20043;-77
2023/05/26 02:26:37;;;;;;;12.15;5.95;;;;;;;13.33;95.91;100674.22;5079414;28;20116;-78
2023/05/26 02:29:21;;;;;;;12.27;5.05;;;;;;;13.42;95.47;100665.28;5070848;28;20496;-77
2023/05/26 02:32:05;;;;;;;14.82;5.38;;;;;;;13.50;95.13;100661.81;5083829;28;20040;-77
2023/05/26 02:34:50;;;;;;;11.23;6.03;;;;;;;13.45;96.42;100666.78;5075971;28;20074;-77
2023/05/26 02:37:35;;;;;;;13.02;5.40;;;;;;;13.56;95.80;100663.75;5078607;28;20084;-77
2023/05/26 02:40:18;;;;;;;12.27;5.60;;;;;;;13.59;96.45;100661.78;5080475;28;20113;-77
2023/05/26 02:43:02;;;;;;;13.50;5.80;;;;;;;13.61;96.41;100663.22;5076062;28;20504;-77
2023/05/26 02:45:46;;;;;;;18.95;5.95;;;;;;;13.56;96.56;100653.22;5083977;28;20085;-76
2023/05/26 02:48:30;;;;;;;;;;;;;;;13.65;96.51;100661.06;5080705;28;20039;-76
2023/05/26 02:51:14;;;;;;;16.35;5.97;;;;;;;13.54;96.64;100660.44;5075502;28;20397;-78
2023/05/26 02:53:59;;;;;;;19.65;6.57;;;;;;;13.38;97.85;100665.81;5081535;28;20043;-78
2023/05/26 02:56:43;;;;;;;12.45;5.25;;;;;;;13.27;98.27;100657.28;5082241;28;20042;-78
2023/05/26 02:59:27;;;;;;;18.80;6.18;;;;;;;13.19;99.19;100661.75;5081223;28;20112;-78
2023/05/26 03:02:12;;;;;;;18.85;6.95;;;;;;;12.97;100.00;100651.81;5087063;28;20409;-77
2023/05/26 03:04:55;;;;;;;19.05;7.15;;;;;;;12.93;100.00;100671.56;5074866;28;20089;-77
2023/05/26 03:07:40;;;;;;;20.08;6.95;;;;;;;12.96;100.00;100662.50;5085179;28;20067;-78
2023/05/26 03:10:24;;;;;;;12.93;5.60;;;;;;;12.88;100.00;100673.09;5077691;28;20110;-79
2023/05/26 03:13:08;;;;;;;15.95;6.32;;;;;;;12.75;100.00;100668.31;5078644;28;20103;-79
2023/05/26 03:15:52;;;;;;;13.05;6.20;;;;;;;12.72;100.00;100661.59;5085888;28;20406;-79
2023/05/26 03:18:37;;;;;;;19.17;6.50;;;;;;;12.64;100.00;100651.91;5084093;28;20100;-78
2023/05/26 03:21:21;;;;;;;23.80;6.68;;;;;;;12.66;100.00;100663.09;5080412;28;20043;-77
2023/05/26 03:24:05;;;;;;;17.80;6.13;;;;;;;12.71;100.00;100673.13;5081509;28;20109;-77
2023/05/26 03:26:51;;;;;;;14.10;7.18;;;;;;;12.60;100.00;100674.31;5076191;28;20125;-78
2023/05/26 03:29:36;;;;;;;19.73;6.38;;;;;;;12.57;100.00;100667.56;5084144;28;20067;-78
2023/05/26 03:32:20;;;;;;;20.45;6.88;;;;;;;12.56;100.00;100672.97;5089979;28;20079;-76
2023/05/26 03:35:05;;;;;;;21.65;7.53;;;;;;;12.68;100.00;100658.47;5078599;28;20047;-77
2023/05/26 03:37:49;;;;;;;13.98;6.90;;;;;;;12.63;100.00;100660.78;5082893;28;20664;-77
2023/05/26 03:40:33;;;;;;;18.40;6.45;;;;;;;12.50;100.00;100658.69;5078154;28;20504;-78
2023/05/26 03:43:17;;;;;;;17.80;6.40;;;;;;;12.57;100.00;100654.38;5080233;28;20062;-76
2023/05/26 03:46:01;;;;;;;27.20;7.57;;;;;;;12.49;100.00;100664.09;5088927;28;20542;-78
2023/05/26 03:48:45;;;;;;;18.85;6.47;;;;;;;12.45;100.00;100665.44;5084367;28;20035;-78
2023/05/26 03:51:30;;;;;;;17.85;6.13;;;;;;;12.41;100.00;100663.13;5077212;28;20102;-76
2023/05/26 03:54:14;;;;;;;18.38;6.00;;;;;;;12.38;100.00;100657.38;5078723;28;20124;-78
2023/05/26 03:56:58;;;;;;;23.80;7.57;;;;;;;12.34;100.00;100670.03;5076545;28;20043;-77
2023/05/26 03:59:42;;;;;;;19.45;6.32;;;;;;;12.26;100.00;100659.53;5090594;28;20488;-78
2023/05/26 04:02:26;;;;;;;19.05;7.75;;;;;;;12.35;100.00;100661.16;5081721;28;20098;-78
2023/05/26 04:05:10;;;;;;;21.10;6.88;;;;;;;12.43;100.00;100669.06;5109352;27;20071;-77
2023/05/26 04:07:54;;;;;;;26.73;7.15;;;;;;;12.40;100.00;100660.66;5085334;28;20128;-78
2023/05/26 04:10:38;;;;;;;17.23;7.05;;;;;;;12.51;100.00;100670.03;5078130;28;20166;-77
2023/05/26 04:13:23;;;;;;;15.90;6.38;;;;;;;12.52;100.00;100672.50;5081536;28;20435;-77
2023/05/26 04:16:07;;;;;;;16.80;6.18;;;;;;;12.54;100.00;100664.41;5074960;28;20117;-77
2023/05/26 04:18:51;;;;;;;19.27;5.82;;;;;;;12.57;100.00;100669.34;5074648;28;20037;-78
2023/05/26 04:21:36;;;;;;;18.25;6.40;;;;;;;12.59;100.00;100674.47;5071952;28;20118;-77
2023/05/26 04:24:20;;;;;;;22.85;6.95;;;;;;;12.50;100.00;100665.75;5083108;28;20046;-76
2023/05/26 04:27:07;;;;;;;18.25;6.53;;;;;;;12.60;100.00;100658.50;5075361;28;20055;-77
2023/05/26 04:29:52;;;;;;;28.77;7.20;;;;;;;12.75;100.00;100676.22;5083050;28;20066;-76
2023/05/26 04:32:37;;;;;;;20.05;6.15;;;;;;;12.77;100.00;100671.59;5080978;28;20090;-77
2023/05/26 04:35:21;;;;;;;25.13;6.63;;;;;;;12.90;100.00;100673.75;5076082;28;20105;-78
2023/05/26 04:38:06;;;;;;;20.83;6.50;;;;;;;12.82;100.00;100661.41;5076383;28;20102;-76
2023/05/26 04:40:50;;;;;;;19.10;6.88;;;;;;;12.86;100.00;100662.72;5082644;28;20136;-78
2023/05/26 04:43:34;;;;;;;23.77;7.20;;;;;;;12.84;100.00;100664.69;5079579;28;20074;-77
2023/05/26 04:46:19;;;;;;;17.45;6.75;;;;;;;12.99;100.00;100672.72;5080655;28;20047;-77
2023/05/26 04:49:09;;;;;;;22.77;7.13;;;;;;;13.20;100.00;100671.31;5080575;28;20036;-78
2023/05/26 04:51:56;;;;;;;22.90;6.55;;;;;;;13.13;100.00;100679.09;5084074;28;20047;-77
2023/05/26 04:54:42;;;;;;;17.23;6.05;;;;;;;13.21;100.00;100673.78;5081422;28;20047;-78
2023/05/26 04:57:25;;;;;;;18.27;6.60;;;;;;;13.15;100.00;100679.72;5075246;28;22051;-76
2023/05/26 05:00:12;;;;;;;22.70;6.18;;;;;;;13.24;100.00;100678.72;5077209;28;20473;-77
2023/05/26 05:02:56;;;;;;;13.15;5.22;;;;;;;13.28;100.00;100682.66;5079502;28;20120;-78
2023/05/26 05:05:41;;;;;;;21.85;6.22;;;;;;;13.31;100.00;100684.13;5083606;28;20047;-76
2023/05/26 05:08:25;;;;;;;21.30;5.88;;;;;;;13.43;100.00;100684.59;5076745;28;20409;-77
2023/05/26 05:11:11;;;;;;;20.05;6.00;;;;;;;13.53;100.00;100684.38;5077839;28;20047;-77
2023/05/26 05:13:55;;;;;;;23.15;6.38;;;;;;;13.64;100.00;100691.09;5077095;28;20042;-77
2023/05/26 05:16:41;;;;;;;22.48;6.63;;;;;;;13.56;100.00;100674.31;5075650;28;20035;-78
2023/05/26 05:19:26;;;;;;;15.73;5.70;;;;;;;13.67;99.46;100680.19;5075600;28;20055;-77
2023/05/26 05:22:12;;;;;;;18.88;5.88;;;;;;;13.81;99.54;100682.06;5078329;28;20093;-76
2023/05/26 05:24:56;;;;;;;17.85;6.03;;;;;;;13.88;98.86;100676.91;5080588;28;20042;-76
2023/05/26 05:27:40;;;;;;;16.05;6.93;;;;;;;13.99;98.42;100673.03;5077941;28;20055;-76
2023/05/26 05:30:25;;;;;;;13.40;5.38;;;;;;;14.01;97.69;100681.59;5078394;28;20044;-77
2023/05/26 05:33:10;;;;;;;18.85;5.15;;;;;;;14.07;97.43;100680.88;5079323;28;20105;-78
2023/05/26 05:35:54;;;;;;;15.70;5.55;;;;;;;14.09;96.92;100673.59;5074439;28;20054;-77
2023/05/26 05:38:38;;;;;;;17.15;5.40;;;;;;;14.28;95.76;100687.31;5077502;28;20039;-76
2023/05/26 05:41:22;;;;;;;19.02;6.00;;;;;;;14.35;93.59;100688.28;5078183;28;20051;-77
2023/05/26 05:44:06;;;;;;;18.08;5.70;;;;;;;14.44;92.60;100686.34;5086485;28;20449;-77
2023/05/26 05:46:51;;;;;;;11.43;5.00;;;;;;;14.43;93.00;100693.47;5080495;28;20039;-79
2023/05/26 05:49:35;;;;;;;14.10;5.30;;;;;;;14.53;92.33;100695.03;5075321;28;20042;-76
2023/05/26 05:52:19;;;;;;;17.73;5.70;;;;;;;14.45;92.69;100695.94;5084002;28;20043;-76
2023/05/26 05:55:04;;;;;;;18.58;5.60;;;;;;;14.46;93.28;100694.09;5087306;28;20042;-75
2023/05/26 05:57:50;;;;;;;15.00;5.20;;;;;;;14.59;93.19;100702.25;5078653;28;20538;-77
2023/05/26 06:00:34;;;;;;;14.68;5.63;;;;;;;14.69;91.63;100691.41;5084117;28;20115;-77
2023/05/26 06:03:19;;;;;;;24.27;6.50;;;;;;;14.82;90.93;100693.47;5078574;28;20086;-76
2023/05/26 06:06:03;;;;;;;12.70;5.47;;;;;;;14.85;91.51;100688.66;5083005;28;20116;-76
2023/05/26 06:08:48;;;;;;;21.38;5.80;;;;;;;14.95;91.13;100692.81;5078225;28;20398;-75
2023/05/26 06:11:32;;;;;;;16.50;5.57;;;;;;;15.03;91.19;100697.19;5076692;28;20047;-77
2023/05/26 06:14:16;;;;;;;18.27;5.18;;;;;;;15.08;90.15;100700.94;5084792;28;20085;-75
2023/05/26 06:17:01;;;;;;;14.82;5.70;;;;;;;15.20;89.36;100695.16;5070068;28;20043;-76
2023/05/26 06:19:45;;;;;;;11.93;4.82;;;;;;;15.26;90.52;100705.84;5072350;28;20035;-76
2023/05/26 06:22:29;;;;;;;13.52;4.93;;;;;;;15.32;89.06;100704.28;5076023;28;20043;-78
2023/05/26 06:25:13;;;;;;;15.63;5.07;;;;;;;15.36;89.62;100710.03;5072755;28;20055;-78
2023/05/26 06:27:57;;;;;;;13.43;5.38;;;;;;;15.49;88.51;100694.31;5073041;28;20113;-80
2023/05/26 06:30:42;;;;;;;13.88;5.20;;;;;;;15.62;90.53;100714.00;5077382;28;20051;-80
2023/05/26 06:33:26;;;;;;;19.17;4.95;;;;;;;15.61;91.47;100705.22;5079285;28;20177;-79
2023/05/26 06:36:10;;;;;;;20.52;5.43;;;;;;;15.79;89.37;100714.56;5079312;28;20061;-79
2023/05/26 06:38:54;;;;;;;15.18;5.22;;;;;;;15.82;88.75;100715.03;5073144;28;20363;-80
2023/05/26 06:41:38;;;;;;;15.85;4.82;;;;;;;15.96;87.77;100715.22;5081747;28;20456;-78
2023/05/26 06:44:23;;;;;;;18.58;5.88;;;;;;;16.06;87.56;100717.53;5072900;28;20098;-80
2023/05/26 06:47:08;;;;;;;13.00;4.57;;;;;;;16.10;87.90;100714.31;5079540;28;20120;-79
2023/05/26 06:49:52;;;;;;;16.75;5.43;;;;;;;16.10;87.64;100716.16;5078804;28;20050;-80
2023/05/26 06:52:36;;;;;;;17.02;6.20;;;;;;;16.24;87.52;100725.03;5072935;28;20043;-78
2023/05/26 06:55:20;;;;;;;14.88;5.25;;;;;;;16.45;88.46;100729.50;5067160;28;20049;-82
2023/05/26 06:58:04;;;;;;;21.23;6.20;;;;;;;16.41;87.53;100722.94;5075835;28;20035;-83
2023/05/26 07:00:56;;;;;;;16.08;5.57;;;;;;;16.40;86.79;100715.97;5077302;28;20047;-80
2023/05/26 07:03:40;;;;;;;14.85;4.93;;;;;;;16.46;85.93;100719.69;5078019;28;20097;-81
2023/05/26 07:06:24;;;;;;;13.93;4.97;;;;;;;16.50;85.85;100726.25;5070803;28;20043;-80
2023/05/26 07:09:08;;;;;;;14.00;6.00;;;;;;;16.62;84.96;100726.56;5068358;28;20461;-81
2023/05/26 07:11:52;;;;;;;16.42;5.30;;;;;;;16.68;84.42;100729.25;5071166;28;20398;-78
2023/05/26 07:14:36;;;;;;;19.90;5.40;;;;;;;16.72;84.42;100728.88;5073269;28;20051;-80
2023/05/26 07:17:20;;;;;;;16.63;4.85;;;;;;;16.69;83.60;100728.22;5082486;28;20093;-80
2023/05/26 07:20:05;;;;;;;18.55;4.82;;;;;;;16.77;83.10;100734.41;5074393;28;20495;-78
2023/05/26 07:22:49;;;;;;;12.98;4.57;;;;;;;16.80;81.81;100731.38;5079028;28;20092;-79
2023/05/26 07:25:33;;;;;;;15.43;4.93;;;;;;;16.87;82.17;100728.78;5078823;28;20516;-79
2023/05/26 07:28:17;;;;;;;8.57;4.22;;;;;;;16.95;82.27;100724.13;5072136;28;20551;-82
2023/05/26 07:31:01;;;;;;;18.40;4.43;;;;;;;16.95;83.35;100724.13;5078152;28;20085;-80
2023/05/26 07:33:47;;;;;;;12.07;4.40;;;;;;;17.22;82.28;100726.94;5079871;28;20051;-80
2023/05/26 07:36:32;;;;;;;10.07;4.05;;;;;;;17.25;81.32;100729.19;5078375;28;20048;-80
2023/05/26 07:39:16;;;;;;;11.95;4.38;;;;;;;17.47;81.66;100721.13;5078164;28;20085;-80
2023/05/26 07:42:00;;;;;;;12.38;4.90;;;;;;;17.50;82.06;100726.06;5074116;28;20067;-79
2023/05/26 07:44:44;;;;;;;11.45;4.50;;;;;;;17.61;80.00;100721.16;5079998;28;20167;-79
2023/05/26 07:47:31;;;;;;;22.83;4.65;;;;;;;17.70;79.79;100726.09;5081918;28;20051;-79
2023/05/26 07:50:15;;;;;;;12.70;4.25;;;;;;;17.65;81.48;100723.25;5080208;28;20438;-80
2023/05/26 07:53:00;;;;;;;12.38;4.80;;;;;;;17.68;81.48;100728.16;5084489;28;20039;-79
2023/05/26 07:55:44;;;;;;;11.30;5.30;;;;;;;17.72;80.46;100727.75;5084127;28;20424;-80
2023/05/26 07:58:28;;;;;;;11.70;4.00;;;;;;;17.80;79.52;100731.03;5083115;28;20055;-80
2023/05/26 08:01:12;;;;;;;8.75;4.50;;;;;;;17.77;80.85;100728.78;5080272;28;20051;-79
2023/05/26 08:03:56;;;;;;;11.20;4.80;;;;;;;17.70;81.24;100733.28;5076449;28;20047;-80
2023/05/26 08:06:40;;;;;;;13.48;4.88;;;;;;;17.89;79.87;100738.84;5079773;28;20423;-79
2023/05/26 08:09:25;;;;;;;11.60;4.55;;;;;;;17.91;80.55;100736.78;5086740;28;20075;-78
2023/05/26 08:12:09;;;;;;;14.52;4.85;;;;;;;18.01;81.54;100736.41;5078027;28;20087;-79
2023/05/26 08:14:54;;;;;;;9.98;4.25;;;;;;;18.15;81.03;100738.06;5078457;28;20109;-78
2023/05/26 08:17:39;;;;;;;15.73;5.10;;;;;;;18.32;79.65;100738.50;5073295;28;20040;-76
2023/05/26 08:20:23;;;;;;;11.30;5.18;;;;;;;18.39;79.87;100739.31;5076308;28;20043;-79
2023/05/26 08:23:07;;;;;;;12.88;4.65;;;;;;;18.42;78.12;100738.91;5073119;28;20093;-80
2023/05/26 08:25:52;;;;;;;12.60;5.15;;;;;;;18.30;79.32;100724.59;5079733;28;20043;-81
2023/05/26 08:28:36;;;;;;;14.30;4.90;;;;;;;18.49;78.66;100727.47;5077936;28;20532;-79
2023/05/26 08:31:20;;;;;;;10.45;4.70;;;;;;;18.47;78.79;100721.50;5081103;28;20043;-80
2023/05/26 08:34:04;;;;;;;14.43;5.25;;;;;;;18.58;79.89;100726.22;5082115;28;20055;-80
2023/05/26 08:36:49;;;;;;;15.98;5.03;;;;;;;18.61;79.11;100719.69;5076891;28;20039;-80
2023/05/26 08:39:33;;;;;;;8.50;4.50;;;;;;;18.64;80.25;100725.38;5076352;28;20030;-79
2023/05/26 08:42:27;;;;;;;14.85;5.20;;;;;;;18.77;79.21;100718.41;5076322;28;20543;-78
2023/05/26 08:45:12;;;;;;;12.60;4.82;;;;;;;18.76;78.44;100720.25;5078006;28;20056;-80
2023/05/26 08:48:00;;;;;;;13.45;4.90;;;;;;;18.74;77.63;100726.81;5077005;28;20098;-77
2023/05/26 08:50:49;;;;;;;14.20;5.00;;;;;;;18.82;79.99;100710.63;5075478;28;20528;-81
2023/05/26 08:53:34;;;;;;;14.75;5.57;;;;;;;18.81;78.16;100720.47;5078302;28;20070;-81
2023/05/26 08:56:19;;;;;;;13.43;4.65;;;;;;;19.05;79.70;100725.31;5079044;28;20125;-80
2023/05/26 08:59:08;;;;;;;16.63;6.15;;;;;;;19.23;80.86;100717.50;5079447;28;20067;-81
2023/05/26 09:01:52;;;;;;;16.83;5.32;;;;;;;19.20;80.91;100727.75;5076630;28;20047;-80
2023/05/26 09:04:36;;;;;;;15.25;5.43;;;;;;;19.19;82.14;100716.28;5078721;28;20101;-80
2023/05/26 09:07:21;;;;;;;12.70;5.30;;;;;;;19.18;80.91;100727.16;5078357;28;20052;-79
2023/05/26 09:10:25;;;;;;;17.65;5.40;;;;;;;19.41;81.24;100727.47;5077749;28;20070;-81
2023/05/26 09:13:10;;;;;;;;;;;;;;;19.57;78.12;100721.84;5076771;28;20036;-79
2023/05/26 09:15:54;;;;;;;13.05;5.03;;;;;;;19.59;78.13;100725.97;5080205;28;19923;-80
2023/05/26 09:18:42;;;;;;;15.38;5.40;;;;;;;19.61;76.77;100723.06;5079377;28;20086;-80
2023/05/26 09:21:28;;;;;;;12.88;5.07;;;;;;;19.84;78.36;100717.19;5076027;28;20113;-80
2023/05/26 09:24:16;;;;;;;13.25;6.00;;;;;;;19.83;74.80;100711.03;5082234;28;20101;-80
2023/05/26 09:27:00;;;;;;;14.50;5.13;;;;;;;19.91;77.69;100722.50;5083294;28;20203;-79
2023/05/26 09:29:52;;;;;;;13.70;4.93;;;;;;;20.06;79.87;100723.03;5080661;28;20412;-80
2023/05/26 09:32:37;;;;;;;16.52;5.10;;;;;;;20.26;78.36;100719.41;5083990;28;20069;-81
2023/05/26 09:35:21;;;;;;;16.42;5.50;;;;;;;20.35;78.02;100719.94;5079575;28;20070;-82
2023/05/26 09:38:07;;;;;;;18.45;5.22;;;;;;;20.36;78.76;100714.38;5077087;28;20089;-78
2023/05/26 09:40:51;;;;;;;14.52;5.07;;;;;;;20.48;76.55;100711.00;5071930;28;20150;-80
2023/05/26 09:43:36;;;;;;;15.45;5.45;;;;;;;20.43;77.06;100708.16;5080959;28;20059;-80
2023/05/26 09:46:22;;;;;;;15.65;5.50;;;;;;;20.62;76.18;100717.03;5082216;28;20114;-80
2023/05/26 09:49:12;;;;;;;12.88;5.43;;;;;;;20.71;76.28;100720.22;5078460;28;20128;-80
2023/05/26 09:51:57;;;;;;;14.90;5.38;;;;;;;20.87;76.30;100703.66;5077463;28;20436;-80
2023/05/26 09:54:41;;;;;;;16.00;6.07;;;;;;;21.03;75.28;100717.44;5076878;28;20046;-80
2023/05/26 09:57:27;;;;;;;13.40;5.50;;;;;;;21.15;74.34;100715.66;5077664;28;20043;-80
2023/05/26 10:00:17;;;;;;;9.90;4.70;;;;;;;21.48;74.85;100717.13;5076285;28;20547;-80
2023/05/26 10:03:08;;;;;;;14.48;5.78;;;;;;;21.60;71.23;100717.16;5080409;28;20059;-79
2023/05/26 10:05:53;;;;;;;12.10;4.47;;;;;;;21.83;73.44;100711.09;5073098;28;20048;-80
2023/05/26 10:08:39;;;;;;;20.55;6.18;;;;;;;22.14;71.18;100716.41;5078096;28;20383;-79
2023/05/26 10:11:26;;;;;;;13.85;5.93;;;;;;;22.42;70.18;100708.75;5076498;28;20047;-79
2023/05/26 10:14:11;;;;;;;12.57;5.68;;;;;;;22.67;69.81;100713.88;5078798;28;20079;-79
2023/05/26 10:16:56;;;;;;;13.25;5.38;;;;;;;22.63;69.79;100705.50;5077472;28;20051;-79
2023/05/26 10:19:41;;;;;;;12.52;6.05;;;;;;;22.68;68.94;100705.63;5077112;28;20090;-79
2023/05/26 10:22:31;;;;;;;12.63;6.13;;;;;;;22.52;70.00;100703.66;5076553;28;20052;-79
2023/05/26 10:25:19;;;;;;;14.00;6.43;;;;;;;22.50;71.95;100703.06;5075920;28;20066;-79
2023/05/26 10:28:37;;;;;;;19.05;6.90;;;;;;;22.27;68.06;100699.31;5078169;28;20042;-79
2023/05/26 10:31:32;;;;;;;11.35;5.95;;;;;;;22.48;70.72;100702.50;5063640;28;20040;-78
2023/05/26 10:34:44;;;;;;;15.27;6.32;;;;;;;22.54;69.53;100699.69;5077180;28;20166;-78
2023/05/26 10:37:28;;;;;;;11.43;6.05;;;;;;;22.79;69.89;100695.94;5076088;28;20059;-79
2023/05/26 10:40:49;;;;;;;12.43;5.53;;;;;;;22.94;67.26;100692.75;5078883;28;20047;-78
2023/05/26 10:43:33;;;;;;;25.88;7.30;;;;;;;22.88;67.73;100699.06;5072246;28;20047;-79
2023/05/26 10:46:17;;;;;;;13.60;6.10;;;;;;;22.97;66.97;100697.63;5075588;28;20101;-79
2023/05/26 10:49:01;;;;;;;12.10;6.45;;;;;;;22.61;67.53;100704.09;5079357;28;20046;-78
2023/05/26 10:51:55;;;;;;;16.73;7.00;;;;;;;22.82;68.00;100711.53;5081589;28;20089;-79
2023/05/26 10:54:40;;;;;;;14.10;6.22;;;;;;;23.02;66.88;100704.97;5072530;28;20044;-80
2023/05/26 10:57:33;;;;;;;15.15;7.03;;;;;;;23.17;66.69;100696.41;5077600;28;20123;-79
2023/05/26 11:00:26;;;;;;;17.27;6.28;;;;;;;23.42;67.72;100703.38;5074012;28;20072;-79
2023/05/26 11:03:33;;;;;;;15.18;7.32;;;;;;;23.47;66.09;100711.50;5077189;28;20137;-79
2023/05/26 11:06:31;;;;;;;14.20;6.65;;;;;;;23.67;65.70;100705.69;5078414;28;20054;-78
2023/05/26 11:09:16;;;;;;;11.55;6.05;;;;;;;23.58;66.62;100709.00;5077732;28;20100;-80
2023/05/26 11:12:06;;;;;;;13.32;6.30;;;;;;;23.72;66.44;100704.97;5076825;28;20074;-81
2023/05/26 11:14:50;;;;;;;13.68;6.68;;;;;;;23.72;65.10;100704.97;5075984;28;20120;-78
2023/05/26 11:17:35;;;;;;;15.60;7.05;;;;;;;23.63;65.30;100709.09;5082472;28;20043;-78
2023/05/26 11:20:21;;;;;;;19.20;7.07;;;;;;;23.56;66.24;100703.06;5082414;28;20039;-78
2023/05/26 11:23:05;;;;;;;12.70;6.95;;;;;;;23.84;67.85;100709.44;5083312;28;20082;-78
2023/05/26 11:25:49;;;;;;;16.88;6.97;;;;;;;23.78;66.25;100700.50;5082389;28;20076;-79
2023/05/26 11:28:33;;;;;;;11.88;6.90;;;;;;;23.58;63.87;100709.00;5079072;28;20043;-78
2023/05/26 11:31:27;;;;;;;13.85;6.63;;;;;;;23.59;64.22;100702.59;5079378;28;20606;-78
2023/05/26 11:34:11;;;;;;;20.27;7.82;;;;;;;23.47;64.35;100687.38;5082417;28;20054;-76
2023/05/26 11:36:55;;;;;;;17.88;7.30;;;;;;;23.61;66.85;100689.78;5084751;28;20089;-78
2023/05/26 11:39:41;;;;;;;18.70;7.25;;;;;;;23.74;66.02;100694.81;5086640;28;20086;-80
2023/05/26 11:42:26;;;;;;;13.93;6.65;;;;;;;24.02;67.26;100692.34;5089613;28;20058;-79
2023/05/26 11:45:10;;;;;;;12.80;6.68;;;;;;;23.84;66.83;100688.00;5084300;28;20542;-77
2023/05/26 11:47:54;;;;;;;14.10;7.75;;;;;;;23.85;63.25;100670.84;5084223;28;20170;-79
2023/05/26 11:50:38;;;;;;;13.93;5.88;;;;;;;23.84;65.80;100683.44;5085835;28;20069;-79
2023/05/26 11:53:22;;;;;;;14.15;6.28;;;;;;;23.77;66.21;100678.22;5081766;28;20074;-79
2023/05/26 11:56:11;;;;;;;15.52;6.63;;;;;;;23.70;64.59;100680.25;5082604;28;20043;-78
2023/05/26 11:58:56;;;;;;;16.48;7.80;;;;;;;23.87;64.72;100685.63;5084575;28;20035;-79
2023/05/26 12:01:40;;;;;;;13.30;7.32;;;;;;;24.14;65.66;100670.78;5083428;28;20507;-82
2023/05/26 12:04:28;;;;;;;15.00;6.43;;;;;;;24.12;63.61;100672.91;5081484;28;20090;-81
2023/05/26 12:07:24;;;;;;;11.77;6.70;;;;;;;24.21;62.33;100663.41;5084296;28;20043;-78
2023/05/26 12:10:08;;;;;;;14.95;6.43;;;;;;;24.50;63.35;100674.81;5084905;28;20090;-82
2023/05/26 12:12:52;;;;;;;14.07;6.18;;;;;;;24.55;63.56;100675.94;5086273;28;20089;-81
2023/05/26 12:15:36;;;;;;;11.68;6.00;;;;;;;24.86;63.32;100673.66;5084912;28;20043;-82
2023/05/26 12:18:23;;;;;;;12.32;6.05;;;;;;;24.78;63.08;100666.88;5082423;28;20078;-81
2023/05/26 12:21:12;;;;;;;13.95;6.25;;;;;;;24.71;61.68;100675.09;5084576;28;20402;-81
2023/05/26 12:23:58;;;;;;;18.20;7.05;;;;;;;24.66;62.78;100664.25;5082526;28;20117;-82
2023/05/26 12:26:46;;;;;;;11.52;6.30;;;;;;;24.92;60.75;100676.16;5081605;28;20089;-80
2023/05/26 12:29:34;;;;;;;8.55;5.60;;;;;;;25.18;61.78;100671.09;5083338;28;20043;-80
2023/05/26 12:32:18;;;;;;;9.45;6.88;;;;;;;25.08;61.70;100673.66;5085587;28;20094;-80
2023/05/26 12:35:02;;;;;;;10.07;6.75;;;;;;;25.10;59.29;100677.72;5075858;28;20091;-80
2023/05/26 12:37:46;;;;;;;12.57;6.25;;;;;;;25.33;61.61;100677.69;5084826;28;20051;-80
2023/05/26 12:40:30;;;;;;;15.55;7.63;;;;;;;25.28;61.29;100669.56;5084485;28;20042;-80
2023/05/26 12:43:14;;;;;;;15.48;7.03;;;;;;;25.57;60.68;100669.34;5077490;28;20541;-79